Time;durP1;ratioP1;P1;durP2;ratioP2;P2;SDS_P1;SDS_P2;PMS_P1;PMS_P2;Temp;Humidity;BMP_temperature;BMP_pressure;BME280_temperature;BME280_humidity;BME280_pressure;Samples;Min_cycle;Max_cycle;Signal;HPM_P1;HPM_P2
2022/12/17 13:08:05;;;;;;;26.35;13.80;;;;;8.10;102390.00;;;;5078256;28;20232;-74
2022/12/17 13:10:34;;;;;;;25.15;13.52;;;;;8.10;102390.00;;;;5072855;28;20198;-74
2022/12/17 13:13:13;;;;;;;27.45;14.43;;;;;8.00;102384.00;;;;5083318;28;20199;-73
2022/12/17 13:15:44;;;;;;;27.42;14.52;;;;;8.10;102377.00;;;;5068654;28;20195;-73
2022/12/17 13:18:28;;;;;;;28.05;14.63;;;;;8.00;102382.00;;;;5084603;28;20206;-74
2022/12/17 13:21:01;;;;;;;26.88;13.35;;;;;8.10;102378.00;;;;5069696;28;20212;-74
2022/12/17 13:23:32;;;;;;;26.58;14.38;;;;;8.10;102377.00;;;;5074834;28;20230;-74
2022/12/17 13:26:22;;;;;;;32.80;16.35;;;;;8.00;102372.00;;;;5075398;28;20190;-74
2022/12/17 13:29:02;;;;;;;26.85;14.02;;;;;8.00;102374.00;;;;5070731;28;20199;-74
2022/12/17 13:31:40;;;;;;;26.63;14.35;;;;;8.00;102377.00;;;;5081906;28;20214;-74
2022/12/17 13:34:16;;;;;;;30.50;15.18;;;;;8.00;102375.00;;;;5069329;28;20190;-74
2022/12/17 13:36:51;;;;;;;30.35;15.70;;;;;8.00;102372.00;;;;5068063;28;20226;-74
2022/12/17 13:39:31;;;;;;;28.27;15.00;;;;;7.90;102368.00;;;;5067914;28;20282;-74
2022/12/17 13:41:59;;;;;;;24.75;14.23;;;;;8.00;102370.00;;;;5073952;28;20221;-74
2022/12/17 13:44:30;;;;;;;28.65;14.70;;;;;8.00;102370.00;;;;5083973;28;20226;-74
2022/12/17 13:46:57;;;;;;;29.33;15.75;;;;;8.00;102368.00;;;;5071231;28;20602;-74
2022/12/17 13:49:27;;;;;;;30.33;15.00;;;;;8.00;102381.00;;;;5067766;28;20195;-73
2022/12/17 13:52:03;;;;;;;32.42;15.48;;;;;7.90;102372.00;;;;5079422;28;20682;-74
2022/12/17 13:54:31;;;;;;;29.50;15.23;;;;;8.00;102370.00;;;;5081161;28;20214;-74
2022/12/17 13:57:08;;;;;;;26.98;14.02;;;;;7.90;102366.00;;;;5082021;28;20691;-74
2022/12/17 13:59:36;;;;;;;28.70;14.55;;;;;7.90;102368.00;;;;5079531;28;20205;-74
2022/12/17 14:02:03;;;;;;;27.77;14.13;;;;;7.90;102374.00;;;;5073212;28;20190;-74
2022/12/17 14:04:32;;;;;;;27.80;14.27;;;;;7.80;102371.00;;;;5068266;28;20640;-73
2022/12/17 14:07:03;;;;;;;30.55;15.75;;;;;7.80;102366.00;;;;5068557;28;20615;-73
2022/12/17 14:09:34;;;;;;;30.35;16.33;;;;;7.80;102364.00;;;;5068820;28;20198;-73
2022/12/17 14:12:22;;;;;;;28.92;15.30;;;;;7.80;102357.00;;;;5077657;28;20190;-73
2022/12/17 14:14:54;;;;;;;26.42;13.50;;;;;7.80;102367.00;;;;5067709;28;20215;-74
2022/12/17 14:17:24;;;;;;;27.80;15.63;;;;;7.80;102366.00;;;;5078132;28;20201;-73
2022/12/17 14:19:59;;;;;;;29.48;14.80;;;;;7.70;102372.00;;;;5076229;28;20191;-74
2022/12/17 14:22:34;;;;;;;27.10;14.82;;;;;7.70;102374.00;;;;5068593;28;21087;-74
2022/12/17 14:25:04;;;;;;;29.75;14.80;;;;;7.70;102386.00;;;;5072973;28;20257;-73
2022/12/17 14:27:34;;;;;;;28.05;13.95;;;;;7.70;102386.00;;;;5076771;28;20195;-73
2022/12/17 14:30:01;;;;;;;31.05;15.05;;;;;7.70;102392.00;;;;5068874;28;20191;-73
2022/12/17 14:32:34;;;;;;;29.95;15.10;;;;;7.60;102391.00;;;;5091073;28;20206;-72
2022/12/17 14:35:03;;;;;;;29.35;14.52;;;;;7.60;102389.00;;;;5084400;28;20191;-73
2022/12/17 14:37:32;;;;;;;26.35;13.65;;;;;7.60;102393.00;;;;5073173;28;20214;-73
2022/12/17 14:40:02;;;;;;;29.95;15.45;;;;;7.60;102395.00;;;;5080465;28;20677;-74
2022/12/17 14:42:31;;;;;;;26.10;14.15;;;;;7.60;102395.00;;;;5076214;28;20198;-73
2022/12/17 14:45:01;;;;;;;27.38;14.55;;;;;7.50;102401.00;;;;5071275;28;20569;-72
2022/12/17 14:47:31;;;;;;;29.00;14.68;;;;;7.50;102406.00;;;;5084848;28;20198;-73
2022/12/17 14:50:05;;;;;;;28.92;15.10;;;;;7.50;102394.00;;;;5082345;28;20191;-73
2022/12/17 14:52:39;;;;;;;26.05;14.77;;;;;7.50;102399.00;;;;5073539;28;20596;-73
2022/12/17 14:55:37;;;;;;;27.20;14.75;;;;;7.30;102401.00;;;;5079298;28;20550;-75
2022/12/17 14:58:25;;;;;;;23.27;13.20;;;;;7.30;102402.00;;;;4973286;28;20206;-73
2022/12/17 15:00:55;;;;;;;28.55;14.23;;;;;7.40;102403.00;;;;5065867;28;20195;-74
2022/12/17 15:03:26;;;;;;;31.60;15.68;;;;;7.40;102401.00;;;;5077548;28;20571;-73
2022/12/17 15:05:58;;;;;;;27.50;14.48;;;;;7.30;102403.00;;;;5070477;28;20198;-73
2022/12/17 15:08:27;;;;;;;29.25;15.55;;;;;7.30;102402.00;;;;5074127;28;20207;-73
2022/12/17 15:10:54;;;;;;;30.73;15.98;;;;;7.30;102408.00;;;;5080680;28;20206;-74
2022/12/17 15:13:21;;;;;;;30.27;15.38;;;;;7.30;102407.00;;;;5078005;28;20191;-73
2022/12/17 15:15:49;;;;;;;29.75;15.23;;;;;7.30;102409.00;;;;5079244;28;20207;-73
2022/12/17 15:18:16;;;;;;;36.13;16.73;;;;;7.30;102401.00;;;;5075189;28;20209;-73
2022/12/17 15:20:44;;;;;;;30.13;16.33;;;;;7.30;102415.00;;;;5082571;28;20302;-74
2022/12/17 15:23:17;;;;;;;28.17;15.65;;;;;7.20;102418.00;;;;5072440;28;20571;-74
2022/12/17 15:25:45;;;;;;;30.23;16.15;;;;;7.20;102412.00;;;;5072525;28;20223;-74
2022/12/17 15:28:12;;;;;;;29.20;14.63;;;;;7.20;102421.00;;;;5081797;28;20203;-73
2022/12/17 15:30:40;;;;;;;28.38;14.57;;;;;7.20;102420.00;;;;5072194;28;20576;-74
2022/12/17 15:33:07;;;;;;;28.17;13.75;;;;;7.20;102421.00;;;;5077666;28;20204;-74
2022/12/17 15:35:35;;;;;;;26.85;14.43;;;;;7.10;102422.00;;;;5072255;28;20199;-74
2022/12/17 15:38:03;;;;;;;29.65;15.02;;;;;7.10;102433.00;;;;5077014;28;20190;-73
2022/12/17 15:40:31;;;;;;;28.38;14.27;;;;;7.10;102436.00;;;;5071373;28;20207;-74
2022/12/17 15:43:10;;;;;;;31.90;14.82;;;;;7.00;102435.00;;;;5081187;28;20203;-74
2022/12/17 15:45:38;;;;;;;24.20;12.50;;;;;7.00;102443.00;;;;5073651;28;20217;-73
2022/12/17 15:48:05;;;;;;;30.95;14.95;;;;;6.90;102442.00;;;;5080686;28;20201;-74
2022/12/17 15:50:33;;;;;;;33.10;16.92;;;;;6.90;102452.00;;;;5080141;28;20206;-74
2022/12/17 15:53:00;;;;;;;30.40;15.80;;;;;6.90;102448.00;;;;5079792;28;20209;-74
2022/12/17 15:55:28;;;;;;;31.73;15.30;;;;;6.90;102448.00;;;;5080369;28;20195;-74
2022/12/17 15:57:57;;;;;;;28.63;14.45;;;;;6.80;102439.00;;;;5075539;28;20210;-74
2022/12/17 16:00:24;;;;;;;31.17;15.70;;;;;6.80;102448.00;;;;5081892;28;20190;-73
2022/12/17 16:02:51;;;;;;;31.83;16.10;;;;;6.80;102452.00;;;;5086918;28;20203;-74
2022/12/17 16:05:19;;;;;;;28.95;14.82;;;;;6.80;102448.00;;;;5089527;28;20237;-74
2022/12/17 16:07:46;;;;;;;33.70;15.70;;;;;6.80;102454.00;;;;5079329;28;20636;-73
2022/12/17 16:10:15;;;;;;;28.13;14.85;;;;;6.80;102463.00;;;;5070491;28;20217;-73
2022/12/17 16:12:42;;;;;;;30.58;15.13;;;;;6.80;102459.00;;;;5081959;28;20213;-73
2022/12/17 16:15:12;;;;;;;29.85;14.60;;;;;6.70;102464.00;;;;5088366;28;20225;-73
2022/12/17 16:17:40;;;;;;;30.33;15.57;;;;;6.70;102470.00;;;;5079921;28;20701;-73
2022/12/17 16:20:08;;;;;;;30.70;14.43;;;;;6.70;102459.00;;;;5074235;28;20209;-74
2022/12/17 16:22:36;;;;;;;27.85;14.13;;;;;6.70;102466.00;;;;5070338;28;20195;-73
2022/12/17 16:25:06;;;;;;;28.77;14.02;;;;;6.70;102465.00;;;;5083695;28;20690;-73
2022/12/17 16:27:33;;;;;;;30.95;15.95;;;;;6.70;102467.00;;;;5075242;28;20202;-73
2022/12/17 16:30:02;;;;;;;27.63;14.57;;;;;6.70;102465.00;;;;5085840;28;20210;-74
2022/12/17 16:32:32;;;;;;;27.02;13.63;;;;;6.60;102471.00;;;;5088139;28;20206;-74
2022/12/17 16:34:59;;;;;;;31.70;15.07;;;;;6.60;102463.00;;;;5087458;28;20283;-74
2022/12/17 16:37:26;;;;;;;24.95;12.70;;;;;6.60;102465.00;;;;5086242;28;20238;-73
2022/12/17 16:39:54;;;;;;;30.90;15.23;;;;;6.60;102465.00;;;;5072985;28;20249;-73
2022/12/17 16:42:21;;;;;;;29.38;14.02;;;;;6.60;102477.00;;;;5073189;28;20195;-74
2022/12/17 16:44:49;;;;;;;27.67;13.88;;;;;6.50;102477.00;;;;5077894;28;20417;-74
2022/12/17 16:47:17;;;;;;;27.25;13.48;;;;;6.50;102477.00;;;;5073029;28;20225;-75
2022/12/17 16:49:45;;;;;;;29.30;14.95;;;;;6.50;102477.00;;;;5078018;28;20198;-71
2022/12/17 16:52:13;;;;;;;26.55;13.68;;;;;6.50;102476.00;;;;5079225;28;20194;-73
2022/12/17 16:54:40;;;;;;;26.88;14.05;;;;;6.50;102470.00;;;;5080128;28;20198;-74
2022/12/17 16:57:07;;;;;;;27.00;13.52;;;;;6.40;102460.00;;;;5073344;28;20197;-75
2022/12/17 16:59:34;;;;;;;30.98;14.32;;;;;6.40;102464.00;;;;5074646;28;20191;-74
2022/12/17 17:02:02;;;;;;;29.02;15.25;;;;;6.40;102469.00;;;;5079169;28;20195;-74
2022/12/17 17:04:29;;;;;;;28.70;13.10;;;;;6.40;102462.00;;;;5084752;28;20213;-75
2022/12/17 17:06:58;;;;;;;29.67;14.10;;;;;6.40;102471.00;;;;5087101;28;20285;-75
2022/12/17 17:09:25;;;;;;;30.60;14.63;;;;;6.40;102471.00;;;;5081393;28;20209;-75
2022/12/17 17:11:56;;;;;;;27.52;13.80;;;;;6.40;102471.00;;;;5079372;28;20197;-75
2022/12/17 17:14:23;;;;;;;27.88;14.45;;;;;6.40;102477.00;;;;5078350;28;20602;-74
2022/12/17 17:16:51;;;;;;;25.75;14.05;;;;;6.40;102480.00;;;;5075126;28;20237;-74
2022/12/17 17:19:19;;;;;;;30.35;14.50;;;;;6.30;102482.00;;;;5083652;28;20198;-74
2022/12/17 17:21:50;;;;;;;34.58;15.75;;;;;6.30;102476.00;;;;5080065;28;20226;-74
2022/12/17 17:24:22;;;;;;;31.15;14.18;;;;;6.30;102477.00;;;;5082181;28;20198;-74
2022/12/17 17:26:51;;;;;;;30.30;13.60;;;;;6.30;102481.00;;;;5070769;28;20214;-74
2022/12/17 17:29:18;;;;;;;32.30;15.52;;;;;6.30;102480.00;;;;5081359;28;20198;-74
2022/12/17 17:31:46;;;;;;;30.60;14.55;;;;;6.30;102476.00;;;;5074143;28;20556;-74
2022/12/17 17:34:15;;;;;;;24.38;12.40;;;;;6.30;102468.00;;;;5080988;28;20229;-74
2022/12/17 17:36:42;;;;;;;49.42;25.90;;;;;6.20;102477.00;;;;5077814;28;20461;-72
2022/12/17 17:39:10;;;;;;;38.55;19.17;;;;;6.40;102476.00;;;;5069234;28;20206;-73
2022/12/17 17:41:38;;;;;;;31.00;15.45;;;;;6.40;102477.00;;;;5070447;28;20201;-73
2022/12/17 17:44:07;;;;;;;31.63;15.60;;;;;6.40;102481.00;;;;5086577;28;20202;-72
2022/12/17 17:46:35;;;;;;;28.67;14.52;;;;;6.40;102478.00;;;;5071388;28;20580;-72
2022/12/17 17:49:06;;;;;;;30.05;15.25;;;;;6.40;102474.00;;;;5077297;28;20194;-72
2022/12/17 17:51:35;;;;;;;27.13;14.07;;;;;6.40;102478.00;;;;5070215;28;20207;-72
2022/12/17 17:54:03;;;;;;;46.87;22.60;;;;;6.40;102475.00;;;;5071383;28;20459;-72
2022/12/17 17:56:33;;;;;;;38.97;18.60;;;;;6.50;102481.00;;;;5071273;28;20191;-72
2022/12/17 17:59:04;;;;;;;39.90;18.15;;;;;6.50;102480.00;;;;5082879;28;20203;-72
2022/12/17 18:01:32;;;;;;;31.70;16.20;;;;;6.50;102488.00;;;;5069526;28;20201;-73
2022/12/17 18:04:02;;;;;;;34.08;15.95;;;;;6.50;102486.00;;;;5081588;28;20205;-72
2022/12/17 18:06:29;;;;;;;32.30;16.13;;;;;6.60;102494.00;;;;5085134;28;20222;-72
2022/12/17 18:08:58;;;;;;;28.10;13.38;;;;;6.50;102491.00;;;;5080777;28;20203;-72
2022/12/17 18:11:28;;;;;;;33.88;15.27;;;;;6.50;102502.00;;;;5080860;28;20197;-72
2022/12/17 18:13:55;;;;;;;29.63;14.43;;;;;6.50;102501.00;;;;5080236;28;20218;-72
2022/12/17 18:16:26;;;;;;;28.55;13.63;;;;;6.50;102502.00;;;;5080772;28;20230;-71
2022/12/17 18:18:55;;;;;;;29.35;15.13;;;;;6.50;102500.00;;;;5077018;28;20700;-72
2022/12/17 18:21:23;;;;;;;26.65;13.27;;;;;6.50;102517.00;;;;5074157;28;20203;-72
2022/12/17 18:23:55;;;;;;;31.00;14.77;;;;;6.50;102510.00;;;;5081196;28;20191;-72
2022/12/17 18:26:24;;;;;;;33.08;13.10;;;;;6.60;102514.00;;;;5071596;28;20223;-73
2022/12/17 18:28:51;;;;;;;32.88;14.13;;;;;6.60;102520.00;;;;5070381;28;20233;-72
2022/12/17 18:31:20;;;;;;;30.27;14.75;;;;;6.60;102513.00;;;;5070048;28;20202;-72
2022/12/17 18:33:50;;;;;;;29.40;13.95;;;;;6.60;102508.00;;;;5072564;28;20688;-72
2022/12/17 18:36:20;;;;;;;33.22;15.32;;;;;6.60;102501.00;;;;5072473;28;20234;-72
2022/12/17 18:38:48;;;;;;;27.98;14.13;;;;;6.60;102511.00;;;;5070816;28;20203;-72
2022/12/17 18:44:05;;;;;;;29.15;12.90;;;;;6.50;102511.00;;;;5085587;28;20205;-73
2022/12/17 18:46:34;;;;;;;25.67;12.50;;;;;6.50;102507.00;;;;5084040;28;20232;-73
2022/12/17 18:49:04;;;;;;;26.23;12.75;;;;;6.50;102507.00;;;;5073835;28;20195;-73
2022/12/17 18:51:32;;;;;;;30.27;14.15;;;;;6.60;102504.00;;;;5088691;28;20206;-72
2022/12/17 18:54:00;;;;;;;30.90;15.65;;;;;6.50;102498.00;;;;5082422;28;20195;-73
2022/12/17 18:56:28;;;;;;;32.53;14.88;;;;;6.60;102504.00;;;;5074699;28;20206;-73
2022/12/17 18:58:56;;;;;;;30.45;14.50;;;;;6.50;102501.00;;;;5074721;28;20676;-73
2022/12/17 19:01:25;;;;;;;27.85;13.32;;;;;6.50;102520.00;;;;5072422;28;20198;-73
2022/12/17 19:03:52;;;;;;;28.58;13.05;;;;;6.50;102514.00;;;;5083853;28;20210;-72
2022/12/17 19:06:22;;;;;;;26.52;12.93;;;;;6.40;102522.00;;;;5075737;28;20233;-73
2022/12/17 19:08:50;;;;;;;28.00;12.32;;;;;6.40;102522.00;;;;5080737;28;20205;-73
2022/12/17 19:11:21;;;;;;;29.65;13.43;;;;;6.40;102521.00;;;;5071943;28;20245;-72
2022/12/17 19:13:50;;;;;;;31.13;13.85;;;;;6.40;102518.00;;;;5080602;28;20221;-73
2022/12/17 19:16:19;;;;;;;26.98;13.77;;;;;6.30;102518.00;;;;5075860;28;20205;-72
2022/12/17 19:18:51;;;;;;;29.55;14.05;;;;;6.30;102515.00;;;;5080405;28;20199;-73
2022/12/17 19:21:20;;;;;;;29.45;13.98;;;;;6.30;102511.00;;;;5083899;28;20660;-72
2022/12/17 19:23:48;;;;;;;26.17;12.60;;;;;6.20;102513.00;;;;5074079;28;20206;-72
2022/12/17 19:26:17;;;;;;;31.75;13.95;;;;;6.20;102515.00;;;;5073269;28;20218;-72
2022/12/17 19:28:47;;;;;;;33.50;14.90;;;;;6.20;102527.00;;;;5075370;28;20946;-73
2022/12/17 19:31:15;;;;;;;32.00;14.07;;;;;6.20;102525.00;;;;5073771;28;20201;-72
2022/12/17 19:33:43;;;;;;;30.67;13.05;;;;;6.20;102524.00;;;;5087846;28;20210;-72
2022/12/17 19:36:12;;;;;;;29.67;15.18;;;;;6.10;102522.00;;;;5081448;28;20253;-73
2022/12/17 19:38:41;;;;;;;34.00;15.77;;;;;6.10;102515.00;;;;5075785;28;20191;-72
2022/12/17 19:41:10;;;;;;;28.05;13.43;;;;;6.10;102527.00;;;;5071405;28;20207;-72
2022/12/17 19:43:37;;;;;;;29.05;13.10;;;;;6.10;102535.00;;;;5078362;28;20194;-73
2022/12/17 19:46:07;;;;;;;29.00;13.70;;;;;6.00;102546.00;;;;5083477;28;20268;-72
2022/12/17 19:48:35;;;;;;;28.77;12.15;;;;;6.00;102535.00;;;;5086199;28;20194;-72
2022/12/17 19:51:05;;;;;;;28.75;13.43;;;;;6.00;102541.00;;;;5077016;28;20201;-72
2022/12/17 19:53:34;;;;;;;26.30;13.00;;;;;5.90;102539.00;;;;5084341;28;20194;-72
2022/12/17 19:56:12;;;;;;;30.83;13.60;;;;;5.80;102544.00;;;;5073983;28;20210;-72
2022/12/17 19:58:40;;;;;;;27.88;12.70;;;;;5.90;102553.00;;;;5081314;28;20648;-72
2022/12/17 20:01:08;;;;;;;26.35;12.70;;;;;5.80;102553.00;;;;5076795;28;20215;-73
2022/12/17 20:03:37;;;;;;;28.23;13.48;;;;;5.80;102553.00;;;;5071880;28;20198;-73
2022/12/17 20:06:05;;;;;;;28.75;13.13;;;;;5.70;102553.00;;;;5082878;28;20225;-73
2022/12/17 20:08:33;;;;;;;28.52;12.25;;;;;5.70;102556.00;;;;5077645;28;20199;-72
2022/12/17 20:11:03;;;;;;;28.05;13.23;;;;;5.70;102550.00;;;;5070996;28;20213;-72
2022/12/17 20:13:31;;;;;;;28.58;12.90;;;;;5.70;102552.00;;;;5083162;28;20552;-73
2022/12/17 20:16:02;;;;;;;26.27;13.02;;;;;5.60;102552.00;;;;5075674;28;20222;-72
2022/12/17 20:18:31;;;;;;;27.88;12.80;;;;;5.60;102555.00;;;;5080801;28;20282;-72
2022/12/17 20:21:02;;;;;;;26.92;12.05;;;;;5.60;102554.00;;;;5069659;28;20207;-73
2022/12/17 20:23:29;;;;;;;29.30;12.82;;;;;5.60;102559.00;;;;5069464;28;20198;-73
2022/12/17 20:26:03;;;;;;;28.63;13.45;;;;;5.60;102562.00;;;;5071776;28;20225;-72
2022/12/17 20:28:32;;;;;;;26.60;12.15;;;;;5.60;102560.00;;;;5084088;28;20194;-72
2022/12/17 20:30:59;;;;;;;28.90;13.02;;;;;5.60;102565.00;;;;5073064;28;20564;-72
2022/12/17 20:33:27;;;;;;;27.70;13.00;;;;;5.70;102568.00;;;;5069706;28;20203;-72
2022/12/17 20:35:54;;;;;;;25.85;12.05;;;;;5.70;102568.00;;;;5075880;28;20245;-73
2022/12/17 20:38:22;;;;;;;34.53;15.43;;;;;5.70;102563.00;;;;5083039;28;20191;-73
2022/12/17 20:40:49;;;;;;;30.23;14.23;;;;;5.70;102565.00;;;;5078720;28;20205;-72
2022/12/17 20:43:17;;;;;;;27.85;13.65;;;;;5.60;102563.00;;;;5068539;28;20191;-72
2022/12/17 20:45:50;;;;;;;29.10;14.48;;;;;5.60;102557.00;;;;5070297;28;20226;-72
2022/12/17 20:48:18;;;;;;;29.92;13.15;;;;;5.60;102554.00;;;;5070597;28;20192;-72
2022/12/17 20:50:45;;;;;;;29.05;14.48;;;;;5.60;102553.00;;;;5069327;28;20222;-72
2022/12/17 20:53:12;;;;;;;33.40;14.23;;;;;5.50;102550.00;;;;5071375;28;20210;-73
2022/12/17 20:55:40;;;;;;;27.25;12.75;;;;;5.50;102551.00;;;;5068938;28;20225;-72
2022/12/17 20:58:07;;;;;;;26.33;12.73;;;;;5.50;102553.00;;;;5069031;28;20653;-73
2022/12/17 21:00:34;;;;;;;27.85;13.30;;;;;5.50;102540.00;;;;5075202;28;20252;-73
2022/12/17 21:03:03;;;;;;;31.45;14.80;;;;;5.50;102542.00;;;;5073668;28;20202;-72
2022/12/17 21:05:30;;;;;;;31.63;15.15;;;;;5.50;102536.00;;;;5072422;28;20206;-72
2022/12/17 21:07:57;;;;;;;32.03;16.15;;;;;5.50;102543.00;;;;5070184;28;20226;-73
2022/12/17 21:10:25;;;;;;;31.98;14.15;;;;;5.50;102550.00;;;;5074823;28;20215;-72
2022/12/17 21:15:37;;;;;;;28.83;12.98;;;;;5.40;102547.00;;;;5068480;28;20226;-73
2022/12/17 21:18:06;;;;;;;31.27;14.55;;;;;5.40;102549.00;;;;5082810;28;20197;-73
2022/12/17 21:20:33;;;;;;;27.02;13.65;;;;;5.40;102557.00;;;;5073037;28;20194;-72
2022/12/17 21:23:00;;;;;;;29.10;14.20;;;;;5.40;102563.00;;;;5075919;28;20203;-73
2022/12/17 21:25:28;;;;;;;21.42;10.90;;;;;5.40;102575.00;;;;5082030;28;20195;-72
2022/12/17 21:27:55;;;;;;;23.77;12.35;;;;;5.40;102577.00;;;;5079708;28;20255;-72
2022/12/17 21:30:23;;;;;;;25.50;13.32;;;;;5.40;102573.00;;;;5071758;28;20201;-72
2022/12/17 21:32:50;;;;;;;28.40;14.10;;;;;5.40;102571.00;;;;5074290;28;20194;-72
2022/12/17 21:35:18;;;;;;;29.98;13.73;;;;;5.40;102567.00;;;;5087437;28;20201;-73
2022/12/17 21:37:46;;;;;;;28.42;12.30;;;;;5.40;102566.00;;;;5075310;28;20226;-72
2022/12/17 21:40:13;;;;;;;27.13;13.27;;;;;5.40;102567.00;;;;5076928;28;20217;-72
2022/12/17 21:45:25;;;;;;;24.63;12.85;;;;;5.40;102572.00;;;;5083641;28;20431;-72
2022/12/17 21:47:53;;;;;;;26.52;12.82;;;;;5.30;102582.00;;;;5085438;28;20278;-73
2022/12/17 21:50:21;;;;;;;31.05;14.00;;;;;5.30;102593.00;;;;5086896;28;20238;-72
2022/12/17 21:52:48;;;;;;;24.77;12.68;;;;;5.30;102599.00;;;;5087086;28;20214;-73
2022/12/17 21:55:16;;;;;;;25.92;13.70;;;;;5.30;102600.00;;;;5086942;28;20213;-73
2022/12/17 21:57:43;;;;;;;24.55;12.50;;;;;5.30;102610.00;;;;5084792;28;20201;-73
2022/12/17 22:00:11;;;;;;;28.38;14.48;;;;;5.30;102615.00;;;;5083202;28;20194;-72
2022/12/17 22:02:39;;;;;;;23.77;12.10;;;;;5.30;102622.00;;;;5082945;28;20660;-72
2022/12/17 22:05:06;;;;;;;25.38;12.32;;;;;5.20;102622.00;;;;5088879;28;20208;-73
2022/12/17 22:07:35;;;;;;;24.10;11.95;;;;;5.20;102626.00;;;;5088222;28;20221;-72
2022/12/17 22:10:02;;;;;;;24.92;11.80;;;;;5.20;102622.00;;;;5085122;28;20237;-72
2022/12/17 22:15:14;;;;;;;22.67;12.13;;;;;5.20;102618.00;;;;5083643;28;20213;-72
2022/12/17 22:17:42;;;;;;;24.45;12.45;;;;;5.20;102620.00;;;;5076675;28;20656;-72
2022/12/17 22:20:10;;;;;;;24.55;11.75;;;;;5.20;102613.00;;;;5073646;28;20198;-72
2022/12/17 22:22:39;;;;;;;23.52;12.48;;;;;5.20;102624.00;;;;5074060;28;20199;-73
2022/12/17 22:25:07;;;;;;;22.23;11.80;;;;;5.20;102625.00;;;;5067406;28;20203;-73
2022/12/17 22:27:35;;;;;;;24.15;12.13;;;;;5.20;102625.00;;;;5071468;28;20222;-73
2022/12/17 22:32:59;;;;;;;22.10;11.45;;;;;5.10;102622.00;;;;5069853;28;20310;-73
2022/12/17 22:35:26;;;;;;;23.65;11.35;;;;;5.10;102635.00;;;;5070966;28;20308;-73
2022/12/17 22:37:55;;;;;;;22.45;11.15;;;;;5.00;102630.00;;;;5071771;28;20231;-73
2022/12/17 22:40:22;;;;;;;25.23;12.70;;;;;5.00;102628.00;;;;5070228;28;20206;-73
2022/12/17 22:45:43;;;;;;;21.38;10.80;;;;;4.90;102611.00;;;;5037527;28;20696;-73
2022/12/17 22:48:11;;;;;;;19.70;10.43;;;;;4.90;102609.00;;;;5071235;28;20198;-73
2022/12/17 22:50:39;;;;;;;18.33;10.50;;;;;4.90;102600.00;;;;5069877;28;20257;-72
2022/12/17 22:53:08;;;;;;;41.85;22.73;;;;;4.80;102587.00;;;;5069979;28;20458;-72
2022/12/17 22:55:36;;;;;;;28.17;14.18;;;;;4.90;102581.00;;;;5072534;28;20210;-73
2022/12/17 22:58:03;;;;;;;24.40;12.57;;;;;4.90;102597.00;;;;5073557;28;20753;-73
2022/12/17 23:00:32;;;;;;;23.58;11.70;;;;;4.90;102599.00;;;;5072344;28;20226;-73
2022/12/17 23:02:59;;;;;;;23.25;12.32;;;;;4.90;102607.00;;;;5070135;28;20578;-72
2022/12/17 23:05:28;;;;;;;21.88;11.43;;;;;4.80;102612.00;;;;5074751;28;20581;-73
2022/12/17 23:07:56;;;;;;;24.60;13.18;;;;;4.80;102611.00;;;;5074715;28;20238;-72
2022/12/17 23:10:26;;;;;;;22.00;11.13;;;;;4.80;102612.00;;;;5075590;28;20194;-72
2022/12/17 23:12:54;;;;;;;22.13;11.43;;;;;4.80;102607.00;;;;5073758;28;20207;-72
2022/12/17 23:15:25;;;;;;;21.17;11.10;;;;;4.70;102611.00;;;;5073506;28;20225;-73
2022/12/17 23:17:54;;;;;;;21.02;10.65;;;;;4.70;102619.00;;;;5076303;28;20207;-72
2022/12/17 23:20:22;;;;;;;25.60;12.15;;;;;4.70;102619.00;;;;5073258;28;20203;-73
2022/12/17 23:22:49;;;;;;;25.67;12.60;;;;;4.70;102602.00;;;;5074138;28;20203;-73
2022/12/17 23:25:17;;;;;;;23.38;12.40;;;;;4.70;102605.00;;;;5074303;28;20203;-73
2022/12/17 23:27:46;;;;;;;22.88;11.63;;;;;4.70;102607.00;;;;5075043;28;20226;-73
2022/12/17 23:30:16;;;;;;;23.48;11.70;;;;;4.60;102613.00;;;;5071133;28;20203;-73
2022/12/17 23:32:44;;;;;;;21.15;11.60;;;;;4.70;102620.00;;;;5074251;28;20205;-73
2022/12/17 23:35:12;;;;;;;24.67;12.90;;;;;4.70;102621.00;;;;5073978;28;20198;-73
2022/12/17 23:37:40;;;;;;;23.33;12.05;;;;;4.70;102618.00;;;;5073032;28;20222;-73
2022/12/17 23:40:09;;;;;;;26.00;12.93;;;;;4.70;102616.00;;;;5071011;28;20198;-73
2022/12/17 23:42:36;;;;;;;21.58;11.63;;;;;4.70;102614.00;;;;5072928;28;20199;-73
2022/12/17 23:45:05;;;;;;;23.23;11.43;;;;;4.70;102612.00;;;;5073820;28;20202;-73
2022/12/17 23:47:33;;;;;;;26.85;12.60;;;;;4.70;102600.00;;;;5071916;28;20214;-73
2022/12/17 23:50:00;;;;;;;23.83;11.85;;;;;4.70;102604.00;;;;5072336;28;20668;-73
2022/12/17 23:52:27;;;;;;;22.70;11.90;;;;;4.70;102600.00;;;;5074230;28;20199;-73
2022/12/17 23:54:55;;;;;;;22.30;12.07;;;;;4.70;102589.00;;;;5073679;28;20216;-73
2022/12/17 23:57:22;;;;;;;24.55;11.65;;;;;4.70;102594.00;;;;5072395;28;20191;-73
2022/12/17 23:59:49;;;;;;;22.02;10.82;;;;;4.70;102599.00;;;;5072171;28;20207;-73
